createdAt,value
2023-02-03T00:00:16.898Z,15.90
2023-02-03T00:03:05.616Z,18.40
2023-02-03T00:05:35.795Z,18.30
2023-02-03T00:08:07.440Z,19.40
2023-02-03T00:10:38.781Z,15.70
2023-02-03T00:13:09.139Z,21.80
2023-02-03T00:15:37.952Z,23.50
2023-02-03T00:18:06.828Z,22.40
2023-02-03T00:20:35.506Z,21.60
2023-02-03T00:23:10.056Z,21.60
2023-02-03T00:25:39.650Z,23.30
2023-02-03T00:28:08.596Z,21.00
2023-02-03T00:30:38.496Z,20.70
2023-02-03T00:33:07.166Z,21.70
2023-02-03T00:35:40.137Z,21.20
2023-02-03T00:38:08.970Z,21.60
2023-02-03T00:40:37.724Z,18.30
2023-02-03T00:43:06.535Z,18.10
2023-02-03T00:45:35.318Z,15.20
2023-02-03T00:48:05.112Z,17.60
2023-02-03T00:50:33.884Z,16.50
2023-02-03T00:53:02.629Z,16.90
2023-02-03T00:55:31.386Z,16.70
2023-02-03T00:58:00.182Z,12.30
2023-02-03T01:00:29.702Z,12.40
2023-02-03T01:02:58.386Z,15.90
2023-02-03T01:05:27.266Z,12.50
2023-02-03T01:07:55.945Z,18.20
2023-02-03T01:10:25.170Z,14.00
2023-02-03T01:12:54.227Z,16.60
2023-02-03T01:15:23.226Z,16.60
2023-02-03T01:17:52.008Z,12.10
2023-02-03T01:20:21.728Z,18.20
2023-02-03T01:22:50.457Z,16.00
2023-02-03T01:25:19.137Z,16.10
2023-02-03T01:27:48.378Z,17.80
2023-02-03T01:30:18.619Z,17.70
2023-02-03T01:32:49.061Z,13.90
2023-02-03T01:35:17.752Z,18.30
2023-02-03T01:37:46.509Z,14.50
2023-02-03T01:40:15.210Z,12.30
2023-02-03T01:42:44.009Z,4.80
2023-02-03T01:45:13.717Z,4.10
2023-02-03T01:47:59.208Z,3.10
2023-02-03T01:50:38.089Z,2.70
2023-02-03T01:53:12.735Z,2.70
2023-02-03T01:55:46.559Z,2.50
2023-02-03T01:58:26.119Z,2.70
2023-02-03T02:00:57.654Z,2.10
2023-02-03T02:03:48.728Z,2.80
2023-02-03T02:06:17.643Z,3.30
2023-02-03T02:08:50.609Z,3.30
2023-02-03T02:11:23.321Z,3.00
2023-02-03T02:13:55.990Z,4.00
2023-02-03T02:16:51.921Z,3.10
2023-02-03T02:20:30.447Z,3.40
2023-02-03T02:23:53.314Z,2.80
2023-02-03T02:27:01.888Z,3.10
2023-02-03T02:30:17.035Z,2.80
2023-02-03T02:33:29.675Z,3.20
2023-02-03T02:36:44.626Z,2.80
2023-02-03T02:39:22.987Z,3.50
2023-02-03T02:42:17.676Z,3.00
2023-02-03T02:45:05.499Z,3.30
2023-02-03T02:47:34.507Z,3.40
2023-02-03T02:50:25.576Z,2.60
2023-02-03T02:52:57.192Z,3.10
2023-02-03T02:55:34.265Z,3.10
2023-02-03T02:58:14.445Z,2.40
2023-02-03T03:00:44.346Z,3.30
2023-02-03T03:03:20.413Z,3.80
2023-02-03T03:06:29.437Z,3.20
2023-02-03T03:09:10.302Z,2.70
2023-02-03T03:12:00.808Z,3.60
2023-02-03T03:14:32.593Z,3.70
2023-02-03T03:17:06.850Z,3.80
2023-02-03T03:19:43.045Z,4.50
2023-02-03T03:22:16.394Z,3.80
2023-02-03T03:24:55.999Z,4.10
2023-02-03T03:27:30.380Z,3.90
2023-02-03T03:30:07.026Z,4.70
2023-02-03T03:32:35.918Z,5.00
2023-02-03T03:35:06.535Z,4.60
2023-02-03T03:37:42.456Z,4.80
2023-02-03T03:40:11.747Z,4.90
2023-02-03T03:42:54.656Z,4.10
2023-02-03T03:45:38.484Z,3.50
2023-02-03T03:48:21.561Z,4.50
2023-02-03T03:51:15.550Z,4.00
2023-02-03T03:53:47.907Z,2.90
2023-02-03T03:56:28.103Z,4.00
2023-02-03T03:59:01.584Z,4.00
2023-02-03T04:01:32.798Z,4.10
2023-02-03T04:04:08.375Z,4.40
2023-02-03T04:06:39.992Z,4.90
2023-02-03T04:09:08.956Z,2.70
2023-02-03T04:11:56.192Z,4.40
2023-02-03T04:14:25.027Z,4.30
2023-02-03T04:16:53.933Z,4.90
2023-02-03T04:19:23.029Z,5.40
2023-02-03T04:21:52.041Z,4.70
2023-02-03T04:24:20.796Z,4.50
2023-02-03T04:26:49.611Z,4.90
2023-02-03T04:29:18.321Z,4.90
2023-02-03T04:31:47.092Z,5.80
2023-02-03T04:34:15.838Z,5.70
2023-02-03T04:36:44.538Z,5.30
2023-02-03T04:39:13.335Z,5.00
2023-02-03T04:41:42.050Z,4.90
2023-02-03T04:44:10.701Z,4.10
2023-02-03T04:46:39.438Z,4.90
2023-02-03T04:49:09.977Z,5.20
2023-02-03T04:51:38.846Z,4.70
2023-02-03T04:54:07.592Z,5.40
2023-02-03T04:56:36.952Z,4.80
2023-02-03T04:59:05.748Z,5.00
2023-02-03T05:01:34.783Z,4.50
2023-02-03T05:04:03.540Z,4.70
2023-02-03T05:06:34.772Z,4.80
2023-02-03T05:09:04.033Z,5.30
2023-02-03T05:11:33.343Z,5.40
2023-02-03T05:14:02.252Z,5.40
2023-02-03T05:16:31.031Z,6.20
2023-02-03T05:18:59.750Z,4.70
2023-02-03T05:21:28.462Z,5.40
2023-02-03T05:23:57.176Z,4.80
2023-02-03T05:26:25.881Z,4.60
2023-02-03T05:28:56.678Z,4.00
2023-02-03T05:31:26.759Z,4.70
2023-02-03T05:33:55.913Z,4.80
2023-02-03T05:36:24.717Z,4.50
2023-02-03T05:38:53.467Z,4.80
2023-02-03T05:41:40.528Z,4.60
2023-02-03T05:44:09.438Z,5.70
2023-02-03T05:46:38.176Z,4.80
2023-02-03T05:49:07.039Z,4.90
2023-02-03T05:51:36.006Z,5.20
2023-02-03T05:54:04.854Z,4.30
2023-02-03T05:56:33.764Z,4.10
2023-02-03T05:59:02.458Z,4.80
2023-02-03T06:01:32.402Z,4.50
2023-02-03T06:04:02.492Z,4.60
2023-02-03T06:06:34.577Z,4.60
2023-02-03T06:09:07.462Z,4.30
2023-02-03T06:11:36.937Z,4.30
2023-02-03T06:14:05.812Z,4.70
2023-02-03T06:16:34.612Z,3.40
2023-02-03T06:19:03.497Z,4.10
2023-02-03T06:21:32.420Z,3.80
2023-02-03T06:24:01.186Z,4.10
2023-02-03T06:26:29.872Z,4.70
2023-02-03T06:28:58.635Z,4.50
2023-02-03T06:31:27.518Z,4.80
2023-02-03T06:33:57.426Z,4.70
2023-02-03T06:36:26.178Z,3.40
2023-02-03T06:38:54.891Z,5.10
2023-02-03T06:41:27.692Z,3.90
2023-02-03T06:43:56.967Z,5.30
2023-02-03T06:46:30.073Z,5.20
2023-02-03T06:48:59.737Z,4.20
2023-02-03T06:51:28.557Z,4.20
2023-02-03T06:53:58.918Z,4.60
2023-02-03T06:56:27.738Z,4.80
2023-02-03T06:58:58.022Z,4.00
2023-02-03T07:01:26.966Z,4.00
2023-02-03T07:04:00.316Z,4.50
2023-02-03T07:06:34.152Z,4.10
2023-02-03T07:09:05.953Z,4.50
2023-02-03T07:11:34.988Z,4.20
2023-02-03T07:14:04.219Z,4.30
2023-02-03T07:16:34.461Z,7.60
2023-02-03T07:19:03.553Z,5.00
2023-02-03T07:21:32.516Z,3.30
2023-02-03T07:24:03.139Z,4.00
2023-02-03T07:26:31.829Z,3.70
2023-02-03T07:29:01.006Z,4.10
2023-02-03T07:31:29.838Z,3.80
2023-02-03T07:33:58.707Z,4.40
2023-02-03T07:36:29.058Z,4.00
2023-02-03T07:38:57.763Z,4.30
2023-02-03T07:41:26.625Z,3.80
2023-02-03T07:43:55.271Z,3.40
2023-02-03T07:46:24.412Z,3.90
2023-02-03T07:48:53.156Z,2.90
2023-02-03T07:51:21.918Z,4.00
2023-02-03T07:53:50.718Z,3.30
2023-02-03T07:56:19.498Z,4.30
2023-02-03T07:58:48.184Z,4.10
2023-02-03T08:01:17.506Z,3.60
2023-02-03T08:03:46.333Z,3.90
2023-02-03T08:06:15.254Z,3.80
2023-02-03T08:08:44.161Z,4.00
2023-02-03T08:11:12.887Z,3.70
2023-02-03T08:13:41.637Z,4.10
2023-02-03T08:16:10.385Z,4.30
2023-02-03T08:18:39.283Z,4.10
2023-02-03T08:21:08.048Z,4.40
2023-02-03T08:23:36.819Z,5.10
2023-02-03T08:26:05.596Z,4.20
2023-02-03T08:28:34.326Z,3.90
2023-02-03T08:31:09.445Z,3.10
2023-02-03T08:33:38.731Z,4.00
2023-02-03T08:36:08.058Z,4.10
2023-02-03T08:38:37.052Z,4.10
2023-02-03T08:41:12.502Z,3.80
2023-02-03T08:43:41.983Z,4.50
2023-02-03T08:46:13.087Z,5.50
2023-02-03T08:48:41.921Z,3.80
2023-02-03T08:51:14.678Z,4.10
2023-02-03T08:53:43.780Z,3.90
2023-02-03T08:56:13.444Z,3.90
2023-02-03T08:58:42.237Z,3.30
2023-02-03T09:01:14.394Z,3.60
2023-02-03T09:03:43.825Z,3.90
2023-02-03T09:06:13.414Z,3.70
2023-02-03T09:08:42.510Z,3.50
2023-02-03T09:11:15.759Z,3.30
2023-02-03T09:13:48.947Z,3.50
2023-02-03T09:18:48.366Z,3.70
2023-02-03T09:21:32.117Z,4.00
2023-02-03T09:24:05.268Z,3.80
2023-02-03T09:26:33.990Z,2.90
2023-02-03T09:29:02.798Z,3.60
2023-02-03T09:31:31.460Z,2.50
2023-02-03T09:34:00.755Z,3.00
2023-02-03T09:36:29.599Z,3.40
2023-02-03T09:38:58.720Z,2.30
2023-02-03T09:42:03.846Z,2.80
2023-02-03T09:45:00.618Z,2.60
2023-02-03T09:47:35.019Z,2.50
2023-02-03T09:50:11.669Z,3.20
2023-02-03T09:52:42.421Z,2.90
2023-02-03T09:55:22.324Z,3.30
2023-02-03T09:58:03.593Z,3.90
2023-02-03T10:00:56.368Z,5.40
2023-02-03T10:03:32.618Z,3.90
2023-02-03T10:06:13.329Z,10.60
2023-02-03T10:09:35.049Z,9.70
2023-02-03T10:12:22.216Z,5.10
2023-02-03T10:15:18.436Z,4.20
2023-02-03T10:18:13.202Z,3.80
2023-02-03T10:20:55.165Z,3.20
2023-02-03T10:23:38.214Z,3.90
2023-02-03T10:26:24.929Z,3.50
2023-02-03T10:29:13.527Z,4.20
2023-02-03T10:31:44.439Z,4.00
2023-02-03T10:34:16.533Z,3.00
2023-02-03T10:37:17.066Z,2.90
2023-02-03T10:39:49.669Z,3.00
2023-02-03T10:42:19.629Z,3.10
2023-02-03T10:44:59.114Z,3.50
2023-02-03T10:47:35.037Z,3.90
2023-02-03T10:50:35.686Z,4.30
2023-02-03T10:53:22.710Z,3.90
2023-02-03T10:56:11.409Z,3.80
2023-02-03T10:58:58.579Z,3.70
2023-02-03T11:01:44.193Z,3.90
2023-02-03T11:04:33.859Z,4.50
2023-02-03T11:07:07.051Z,3.40
2023-02-03T11:09:43.018Z,3.50
2023-02-03T11:12:20.801Z,3.60
2023-02-03T11:14:52.976Z,3.30
2023-02-03T11:17:29.856Z,3.70
2023-02-03T11:20:17.082Z,3.60
2023-02-03T11:22:46.025Z,3.30
2023-02-03T11:25:30.048Z,2.60
2023-02-03T11:28:05.746Z,4.40
2023-02-03T11:30:34.633Z,3.30
2023-02-03T11:33:04.079Z,3.20
2023-02-03T11:35:33.824Z,3.40
2023-02-03T11:38:02.821Z,4.80
2023-02-03T11:40:38.738Z,2.70
2023-02-03T11:43:18.247Z,3.50
2023-02-03T11:45:53.261Z,2.30
2023-02-03T11:48:32.350Z,3.20
2023-02-03T11:51:32.048Z,3.50
2023-02-03T11:54:25.335Z,2.70
2023-02-03T11:57:32.002Z,4.30
2023-02-03T12:00:18.141Z,3.40
2023-02-03T12:03:14.386Z,3.40
2023-02-03T12:05:46.217Z,2.50
2023-02-03T12:08:52.272Z,2.50
2023-02-03T12:11:51.758Z,2.20
2023-02-03T12:15:03.885Z,2.50
2023-02-03T12:17:46.324Z,2.40
2023-02-03T12:20:57.860Z,2.80
2023-02-03T12:23:40.716Z,2.40
2023-02-03T12:26:29.629Z,2.90
2023-02-03T12:29:21.681Z,2.20
2023-02-03T12:32:15.166Z,2.80
2023-02-03T12:34:56.655Z,4.00
2023-02-03T12:38:03.814Z,2.80
2023-02-03T12:40:44.426Z,2.40
2023-02-03T12:43:39.571Z,2.50
2023-02-03T12:46:33.781Z,2.50
2023-02-03T12:49:31.836Z,2.30
2023-02-03T12:52:35.176Z,1.90
2023-02-03T12:55:23.996Z,2.70
2023-02-03T12:58:20.740Z,2.10
2023-02-03T13:01:09.153Z,2.60
2023-02-03T13:04:10.130Z,3.50
2023-02-03T13:06:54.220Z,2.40
2023-02-03T13:10:05.778Z,2.20
2023-02-03T13:12:43.161Z,2.50
2023-02-03T13:15:48.332Z,3.60
2023-02-03T13:18:38.117Z,3.30
2023-02-03T13:21:11.068Z,3.30
2023-02-03T13:23:51.645Z,2.30
2023-02-03T13:26:32.389Z,2.80
2023-02-03T13:29:35.307Z,2.70
2023-02-03T13:32:19.323Z,2.70
2023-02-03T13:35:21.647Z,3.20
2023-02-03T13:38:37.942Z,2.70
2023-02-03T13:41:23.067Z,2.90
2023-02-03T13:43:53.651Z,2.90
2023-02-03T13:46:32.865Z,2.30
2023-02-03T13:49:05.030Z,2.00
2023-02-03T13:51:38.189Z,2.40
2023-02-03T13:56:42.555Z,2.20
2023-02-03T13:59:14.371Z,2.10
2023-02-03T14:01:44.733Z,2.80
2023-02-03T14:04:25.450Z,1.50
2023-02-03T14:06:54.229Z,1.50
2023-02-03T14:09:23.054Z,2.20
2023-02-03T14:12:13.231Z,1.90
2023-02-03T14:15:05.168Z,2.40
2023-02-03T14:17:42.869Z,2.40
2023-02-03T14:20:29.372Z,3.00
2023-02-03T14:23:06.773Z,2.20
2023-02-03T14:25:45.388Z,3.80
2023-02-03T14:28:44.116Z,8.30
2023-02-03T14:31:25.299Z,3.60
2023-02-03T14:34:08.133Z,25.90
2023-02-03T14:36:50.723Z,11.70
2023-02-03T14:39:22.667Z,6.60
2023-02-03T14:42:04.181Z,9.70
2023-02-03T14:45:29.845Z,3.30
2023-02-03T14:48:19.829Z,4.70
2023-02-03T14:51:35.740Z,4.60
2023-02-03T14:54:55.414Z,3.20
2023-02-03T14:58:05.450Z,4.80
2023-02-03T15:00:37.881Z,41.00
2023-02-03T15:03:15.186Z,19.60
2023-02-03T15:05:46.723Z,6.70
2023-02-03T15:08:48.319Z,9.20
2023-02-03T15:11:24.966Z,4.80
2023-02-03T15:13:55.890Z,3.90
2023-02-03T15:16:26.632Z,6.50
2023-02-03T15:19:16.171Z,9.70
2023-02-03T15:21:45.391Z,7.30
2023-02-03T15:24:22.994Z,9.70
2023-02-03T15:26:56.715Z,9.30
2023-02-03T15:29:31.517Z,16.10
2023-02-03T15:32:13.092Z,20.60
2023-02-03T15:34:53.678Z,17.90
2023-02-03T15:37:42.184Z,13.00
2023-02-03T15:40:20.840Z,25.80
2023-02-03T15:43:16.298Z,22.00
2023-02-03T15:46:31.835Z,19.60
2023-02-03T15:49:22.469Z,24.10
2023-02-03T15:52:19.729Z,30.60
2023-02-03T15:54:55.008Z,27.90
2023-02-03T15:57:32.123Z,29.90
2023-02-03T16:00:34.734Z,23.10
2023-02-03T16:03:07.210Z,14.70
2023-02-03T16:05:39.487Z,15.00
2023-02-03T16:08:40.662Z,12.80
2023-02-03T16:11:21.681Z,7.10
2023-02-03T16:13:50.977Z,9.70
2023-02-03T16:16:26.918Z,14.60
2023-02-03T16:18:59.062Z,13.80
2023-02-03T16:21:37.879Z,14.50
2023-02-03T16:24:07.107Z,13.20
2023-02-03T16:26:38.596Z,16.70
2023-02-03T16:29:28.557Z,19.40
2023-02-03T16:32:16.977Z,20.60
2023-02-03T16:35:04.367Z,21.60
2023-02-03T16:38:03.379Z,22.00
2023-02-03T16:40:50.268Z,19.50
2023-02-03T16:43:37.416Z,18.40
2023-02-03T16:46:31.016Z,19.00
2023-02-03T16:49:17.954Z,19.40
2023-02-03T16:51:46.729Z,16.50
2023-02-03T16:54:15.591Z,16.40
2023-02-03T16:56:44.902Z,11.50
2023-02-03T16:59:13.807Z,13.90
2023-02-03T17:01:42.729Z,14.50
2023-02-03T17:04:11.884Z,11.70
2023-02-03T17:06:41.578Z,12.60
2023-02-03T17:09:10.673Z,12.30
2023-02-03T17:11:39.815Z,13.00
2023-02-03T17:14:08.992Z,16.90
2023-02-03T17:16:37.842Z,14.10
2023-02-03T17:19:06.714Z,14.90
2023-02-03T17:21:35.580Z,13.70
2023-02-03T17:24:04.731Z,11.00
2023-02-03T17:26:34.539Z,10.20
2023-02-03T17:29:03.732Z,9.90
2023-02-03T17:31:33.056Z,9.80
2023-02-03T17:34:01.819Z,9.00
2023-02-03T17:36:30.675Z,9.70
2023-02-03T17:55:34.143Z,9.40
2023-02-03T17:58:03.087Z,11.50
2023-02-03T18:00:32.235Z,12.80
2023-02-03T18:03:01.294Z,11.90
2023-02-03T18:05:30.242Z,11.00
2023-02-03T18:08:03.137Z,11.30
2023-02-03T18:10:37.918Z,11.70
2023-02-03T18:13:06.790Z,11.10
2023-02-03T18:15:37.956Z,10.90
2023-02-03T18:18:07.333Z,9.70
2023-02-03T18:20:36.174Z,9.30
2023-02-03T18:23:05.075Z,10.20
2023-02-03T18:25:36.242Z,11.40
2023-02-03T18:28:05.318Z,10.70
2023-02-03T18:30:34.241Z,11.90
2023-02-03T18:33:04.095Z,10.00
2023-02-03T18:35:34.078Z,11.30
2023-02-03T18:38:03.326Z,11.20
2023-02-03T18:40:32.261Z,9.80
2023-02-03T18:43:02.583Z,12.20
2023-02-03T18:45:34.425Z,11.60
2023-02-03T18:48:03.358Z,12.30
2023-02-03T18:50:32.573Z,11.00
2023-02-03T18:53:01.455Z,12.20
2023-02-03T18:55:30.279Z,11.20
2023-02-03T18:57:59.098Z,11.90
2023-02-03T19:00:28.498Z,10.20
2023-02-03T19:02:57.664Z,11.30
2023-02-03T19:05:26.559Z,12.70
2023-02-03T19:07:55.717Z,13.40
2023-02-03T19:10:24.587Z,13.60
2023-02-03T19:12:53.439Z,14.50
2023-02-03T19:15:22.296Z,15.30
2023-02-03T19:17:51.598Z,18.20
2023-02-03T19:20:20.780Z,19.00
2023-02-03T19:22:50.542Z,20.80
2023-02-03T19:25:19.432Z,21.10
2023-02-03T19:27:48.961Z,19.60
2023-02-03T19:30:18.046Z,17.70
2023-02-03T19:32:46.886Z,17.30
2023-02-03T19:35:15.716Z,17.10
2023-02-03T19:37:44.589Z,16.30
2023-02-03T19:40:13.286Z,15.30
2023-02-03T19:42:42.082Z,15.60
2023-02-03T19:45:11.953Z,16.40
2023-02-03T19:47:40.850Z,16.40
2023-02-03T19:50:10.290Z,16.60
2023-02-03T19:52:39.078Z,16.90
2023-02-03T19:55:08.129Z,16.70
2023-02-03T19:57:36.825Z,17.00
2023-02-03T20:00:06.633Z,17.50
2023-02-03T20:02:42.351Z,18.90
2023-02-03T20:05:11.958Z,21.40
2023-02-03T20:07:40.878Z,20.30
2023-02-03T20:10:10.307Z,20.20
2023-02-03T20:12:39.021Z,19.00
2023-02-03T20:15:08.654Z,19.40
2023-02-03T20:17:37.565Z,18.20
2023-02-03T20:20:06.799Z,18.20
2023-02-03T20:22:35.669Z,20.70
2023-02-03T20:25:06.293Z,22.80
2023-02-03T20:27:35.235Z,23.40
2023-02-03T20:30:04.880Z,20.30
2023-02-03T20:32:34.126Z,22.80
2023-02-03T20:35:04.657Z,22.10
2023-02-03T20:37:36.318Z,20.80
2023-02-03T20:40:17.194Z,20.10
2023-02-03T20:42:47.558Z,19.30
2023-02-03T20:45:18.028Z,20.80
2023-02-03T20:47:47.369Z,22.10
2023-02-03T20:50:31.704Z,22.00
2023-02-03T20:53:30.093Z,20.60
2023-02-03T20:56:01.874Z,20.70
2023-02-03T20:58:35.404Z,20.70
2023-02-03T21:01:21.021Z,19.30
2023-02-03T21:04:08.411Z,18.10
2023-02-03T21:06:37.291Z,19.20
2023-02-03T21:09:18.607Z,19.10
2023-02-03T21:11:47.462Z,18.10
2023-02-03T21:14:28.262Z,17.60
2023-02-03T21:16:57.120Z,16.50
2023-02-03T21:19:33.570Z,16.80
2023-02-03T21:22:25.565Z,18.30
2023-02-03T21:25:03.472Z,18.20
2023-02-03T21:27:34.762Z,17.80
2023-02-03T21:30:30.815Z,13.00
2023-02-03T21:33:01.263Z,12.40
2023-02-03T21:35:34.534Z,11.40
2023-02-03T21:38:31.178Z,11.80
2023-02-03T21:41:01.416Z,10.80
2023-02-03T21:43:30.537Z,10.30
2023-02-03T21:45:59.335Z,10.10
2023-02-03T21:48:34.865Z,10.60
2023-02-03T21:51:12.498Z,10.70
2023-02-03T21:53:51.590Z,9.60
2023-02-03T21:56:27.639Z,8.80
2023-02-03T21:58:59.101Z,9.30
2023-02-03T22:01:34.840Z,8.40
2023-02-03T22:04:04.315Z,8.80
2023-02-03T22:06:56.278Z,8.70
2023-02-03T22:09:27.210Z,9.30
2023-02-03T22:11:56.178Z,8.70
2023-02-03T22:14:24.930Z,9.00
2023-02-03T22:16:53.743Z,8.00
2023-02-03T22:19:22.723Z,7.90
2023-02-03T22:21:52.591Z,9.00
2023-02-03T22:24:21.383Z,7.80
2023-02-03T22:26:50.072Z,7.40
2023-02-03T22:29:18.911Z,8.60
2023-02-03T22:31:47.822Z,8.20
2023-02-03T22:34:16.725Z,7.80
2023-02-03T22:36:45.419Z,8.50
2023-02-03T22:39:14.139Z,8.20
2023-02-03T22:41:42.828Z,8.30
2023-02-03T22:44:16.162Z,7.40
2023-02-03T22:46:44.952Z,7.60
2023-02-03T22:49:13.676Z,8.80
2023-02-03T22:51:42.480Z,8.30
2023-02-03T22:54:11.226Z,7.60
2023-02-03T22:56:40.002Z,8.20
2023-02-03T22:59:08.792Z,8.70
2023-02-03T23:01:37.577Z,7.20
2023-02-03T23:04:06.439Z,8.10
2023-02-03T23:06:35.120Z,8.70
2023-02-03T23:09:04.046Z,7.60
2023-02-03T23:11:33.743Z,7.90
2023-02-03T23:14:02.574Z,8.00
2023-02-03T23:16:31.369Z,8.10
2023-02-03T23:19:00.143Z,8.30
2023-02-03T23:21:28.901Z,7.30
2023-02-03T23:23:57.753Z,7.50
2023-02-03T23:26:26.514Z,7.50
2023-02-03T23:28:55.321Z,8.30
2023-02-03T23:31:24.234Z,7.70
2023-02-03T23:34:11.360Z,8.00
2023-02-03T23:36:40.188Z,8.20
2023-02-03T23:39:08.917Z,8.10
2023-02-03T23:41:37.742Z,8.00
2023-02-03T23:44:06.446Z,8.40
2023-02-03T23:46:35.372Z,8.20
2023-02-03T23:49:04.157Z,8.50
2023-02-03T23:51:32.942Z,8.40
2023-02-03T23:54:01.672Z,8.60
2023-02-03T23:56:30.453Z,8.00
2023-02-03T23:58:59.228Z,8.30
